createdAt,value
2022-08-17T00:01:30.362Z,73.53
2022-08-17T00:04:19.097Z,72.98
2022-08-17T00:06:45.921Z,73.04
2022-08-17T00:09:18.458Z,73.29
2022-08-17T00:12:41.015Z,73.09
2022-08-17T00:14:35.072Z,75.42
2022-08-17T00:17:03.831Z,78.70
2022-08-17T00:19:32.601Z,80.14
2022-08-17T00:22:32.215Z,75.97
2022-08-17T00:24:47.648Z,74.69
2022-08-17T00:27:14.757Z,73.93
2022-08-17T00:29:42.334Z,73.35
2022-08-17T00:33:14.415Z,72.69
2022-08-17T00:34:55.489Z,72.53
2022-08-17T00:37:22.072Z,72.71
2022-08-17T00:39:48.678Z,75.48
2022-08-17T00:42:17.703Z,73.78
2022-08-17T00:44:45.114Z,73.14
2022-08-17T00:47:11.663Z,73.62
2022-08-17T00:49:38.356Z,74.82
2022-08-17T00:52:15.647Z,74.65
2022-08-17T00:54:46.775Z,74.00
2022-08-17T00:57:18.756Z,73.38
2022-08-17T01:00:02.587Z,73.06
2022-08-17T01:02:40.470Z,73.13
2022-08-17T01:05:15.183Z,74.31
2022-08-17T01:07:43.529Z,76.58
2022-08-17T01:10:59.778Z,78.35
2022-08-17T01:13:02.637Z,76.57
2022-08-17T01:15:31.440Z,75.76
2022-08-17T01:17:58.112Z,74.17
2022-08-17T01:20:25.168Z,73.14
2022-08-17T01:22:52.431Z,72.97
2022-08-17T01:25:20.650Z,72.55
2022-08-17T01:27:49.238Z,73.10
2022-08-17T01:30:58.954Z,72.24
2022-08-17T01:33:04.408Z,71.90
2022-08-17T01:35:31.366Z,71.82
2022-08-17T01:37:57.940Z,72.06
2022-08-17T01:40:33.675Z,72.13
2022-08-17T01:43:06.026Z,72.12
2022-08-17T01:45:34.275Z,71.91
2022-08-17T01:48:01.227Z,71.79
2022-08-17T01:50:30.983Z,71.47
2022-08-17T01:53:03.095Z,71.52
2022-08-17T01:55:39.733Z,71.23
2022-08-17T01:58:09.760Z,71.03
2022-08-17T02:00:47.027Z,71.03
2022-08-17T02:03:26.011Z,70.93
2022-08-17T02:05:53.382Z,70.87
2022-08-17T02:08:21.501Z,71.43
2022-08-17T02:11:11.670Z,71.49
2022-08-17T02:13:39.098Z,72.24
2022-08-17T02:16:06.201Z,71.85
2022-08-17T02:18:33.233Z,72.04
2022-08-17T02:21:00.299Z,71.94
2022-08-17T02:23:30.388Z,71.83
2022-08-17T02:25:59.844Z,73.51
2022-08-17T02:28:28.441Z,72.83
2022-08-17T02:31:02.727Z,72.87
2022-08-17T02:33:41.840Z,72.66
2022-08-17T02:36:11.519Z,72.35
2022-08-17T02:38:39.479Z,72.20
2022-08-17T02:41:06.195Z,72.27
2022-08-17T02:43:32.833Z,72.79
2022-08-17T02:45:59.481Z,72.97
2022-08-17T02:48:30.633Z,72.87
2022-08-17T02:50:57.886Z,72.94
2022-08-17T02:53:25.903Z,72.60
2022-08-17T02:55:53.358Z,72.61
2022-08-17T02:58:34.593Z,72.74
2022-08-17T03:01:04.250Z,72.24
2022-08-17T03:03:31.031Z,72.01
2022-08-17T03:05:57.923Z,72.15
2022-08-17T03:08:25.610Z,72.15
2022-08-17T03:10:52.503Z,72.11
2022-08-17T03:13:19.412Z,71.98
2022-08-17T03:15:46.904Z,72.14
2022-08-17T03:18:18.923Z,72.36
2022-08-17T03:20:52.864Z,72.39
2022-08-17T03:23:24.038Z,72.60
2022-08-17T03:25:53.133Z,73.11
2022-08-17T03:28:20.921Z,73.04
2022-08-17T03:30:47.631Z,73.00
2022-08-17T03:33:14.710Z,72.71
2022-08-17T03:35:41.522Z,72.72
2022-08-17T03:38:12.606Z,72.77
2022-08-17T03:40:57.105Z,72.71
2022-08-17T03:43:28.888Z,73.13
2022-08-17T03:46:28.340Z,73.53
2022-08-17T03:49:20.704Z,73.75
2022-08-17T03:52:05.823Z,75.41
2022-08-17T03:54:51.035Z,74.05
2022-08-17T03:57:18.544Z,73.64
2022-08-17T03:59:45.429Z,74.42
2022-08-17T04:02:34.548Z,73.92
2022-08-17T04:05:01.942Z,74.00
2022-08-17T04:07:31.137Z,73.78
2022-08-17T04:09:58.326Z,73.96
2022-08-17T04:12:30.989Z,73.99
2022-08-17T04:14:58.020Z,74.34
2022-08-17T04:17:27.674Z,74.59
2022-08-17T04:19:55.071Z,74.66
2022-08-17T04:22:30.441Z,74.61
2022-08-17T04:24:58.742Z,74.27
2022-08-17T04:27:25.540Z,74.32
2022-08-17T04:29:55.428Z,74.60
2022-08-17T04:33:00.515Z,74.41
2022-08-17T04:35:10.590Z,74.41
2022-08-17T04:37:37.786Z,75.51
2022-08-17T04:40:23.168Z,75.11
2022-08-17T04:43:05.484Z,75.86
2022-08-17T04:45:32.635Z,76.00
2022-08-17T04:48:01.461Z,75.88
2022-08-17T04:50:28.292Z,75.94
2022-08-17T04:52:55.381Z,76.02
2022-08-17T04:55:22.228Z,75.90
2022-08-17T04:57:48.926Z,76.00
2022-08-17T05:00:15.721Z,76.07
2022-08-17T05:02:50.618Z,76.54
2022-08-17T05:05:32.474Z,76.53
2022-08-17T05:08:01.355Z,77.08
2022-08-17T05:10:30.784Z,77.08
2022-08-17T05:13:06.126Z,77.77
2022-08-17T05:15:35.897Z,78.15
2022-08-17T05:18:03.424Z,79.46
2022-08-17T05:20:30.363Z,79.11
2022-08-17T05:23:00.096Z,79.72
2022-08-17T05:25:33.283Z,79.30
2022-08-17T05:28:03.427Z,77.80
2022-08-17T05:30:30.227Z,78.45
2022-08-17T05:33:10.070Z,76.69
2022-08-17T05:35:39.604Z,75.53
2022-08-17T05:38:08.036Z,75.44
2022-08-17T05:40:36.354Z,74.14
2022-08-17T05:43:11.839Z,73.88
2022-08-17T05:45:55.521Z,74.15
2022-08-17T05:48:35.832Z,74.77
2022-08-17T05:51:43.338Z,74.16
2022-08-17T05:54:15.583Z,73.77
2022-08-17T05:57:00.655Z,73.78
2022-08-17T05:59:53.050Z,73.48
2022-08-17T06:02:35.146Z,71.93
2022-08-17T06:05:27.751Z,72.06
2022-08-17T06:08:17.750Z,72.52
2022-08-17T06:10:55.430Z,100.00
2022-08-17T06:13:53.904Z,100.00
2022-08-17T06:16:34.142Z,100.00
2022-08-17T06:19:26.535Z,100.00
2022-08-17T06:21:55.139Z,100.00
2022-08-17T06:24:40.183Z,100.00
2022-08-17T06:27:35.940Z,100.00
2022-08-17T06:30:09.252Z,100.00
2022-08-17T06:32:42.749Z,100.00
2022-08-17T06:35:12.819Z,100.00
2022-08-17T06:37:42.100Z,100.00
2022-08-17T06:40:37.852Z,100.00
2022-08-17T06:43:51.832Z,100.00
2022-08-17T06:46:24.224Z,100.00
2022-08-17T06:49:07.343Z,100.00
2022-08-17T06:51:50.662Z,100.00
2022-08-17T06:54:35.557Z,100.00
2022-08-17T06:57:20.024Z,100.00
2022-08-17T06:59:56.281Z,100.00
2022-08-17T07:02:52.934Z,100.00
2022-08-17T07:05:24.185Z,100.00
2022-08-17T07:08:02.630Z,100.00
2022-08-17T07:10:42.654Z,100.00
2022-08-17T07:13:33.758Z,64.95
2022-08-17T07:16:36.301Z,66.56
2022-08-17T07:19:06.065Z,62.99
2022-08-17T07:22:20.663Z,61.70
2022-08-17T07:24:57.281Z,61.73
2022-08-17T07:27:38.772Z,62.62
2022-08-17T07:30:16.451Z,61.55
2022-08-17T07:32:57.830Z,61.30
2022-08-17T07:35:37.900Z,61.49
2022-08-17T07:38:28.318Z,61.13
2022-08-17T07:40:58.238Z,61.74
2022-08-17T07:43:26.370Z,60.39
2022-08-17T07:46:30.267Z,61.16
2022-08-17T07:49:37.349Z,60.75
2022-08-17T07:52:48.063Z,56.98
2022-08-17T07:54:54.941Z,56.73
2022-08-17T07:57:29.393Z,55.72
2022-08-17T07:59:59.468Z,54.67
2022-08-17T08:02:33.810Z,56.32
2022-08-17T08:05:01.836Z,54.67
2022-08-17T08:07:34.819Z,55.92
2022-08-17T08:10:07.663Z,56.81
2022-08-17T08:12:47.738Z,54.52
2022-08-17T08:15:20.996Z,54.99
2022-08-17T08:17:53.505Z,53.88
2022-08-17T08:20:52.145Z,53.51
2022-08-17T08:23:39.185Z,53.83
2022-08-17T08:26:08.320Z,55.61
2022-08-17T08:28:46.743Z,55.04
2022-08-17T08:31:30.184Z,55.13
2022-08-17T08:34:55.877Z,56.59
2022-08-17T08:37:20.679Z,53.53
2022-08-17T08:40:08.804Z,53.12
2022-08-17T08:43:10.165Z,54.84
2022-08-17T08:45:41.351Z,100.00
2022-08-17T08:48:53.874Z,100.00
2022-08-17T08:51:47.061Z,100.00
2022-08-17T08:54:37.699Z,100.00
2022-08-17T08:57:30.967Z,100.00
2022-08-17T09:00:21.283Z,100.00
2022-08-17T09:03:09.160Z,100.00
2022-08-17T09:05:44.694Z,100.00
2022-08-17T09:08:20.738Z,100.00
2022-08-17T09:10:59.831Z,100.00
2022-08-17T09:13:38.503Z,100.00
2022-08-17T09:16:15.334Z,100.00
2022-08-17T09:19:01.747Z,100.00
2022-08-17T09:22:31.608Z,100.00
2022-08-17T09:25:03.269Z,100.00
2022-08-17T09:27:42.972Z,100.00
2022-08-17T09:30:11.947Z,100.00
2022-08-17T09:32:44.104Z,100.00
2022-08-17T09:35:19.950Z,100.00
2022-08-17T09:38:04.743Z,100.00
2022-08-17T09:40:43.488Z,100.00
2022-08-17T09:43:27.626Z,100.00
2022-08-17T09:46:02.269Z,54.84
2022-08-17T09:48:44.061Z,47.59
2022-08-17T09:51:20.241Z,46.62
2022-08-17T09:53:47.191Z,49.52
2022-08-17T09:56:29.057Z,48.97
2022-08-17T09:59:16.920Z,49.43
2022-08-17T10:01:51.674Z,49.55
2022-08-17T10:04:22.850Z,46.09
2022-08-17T10:07:13.465Z,45.01
2022-08-17T10:09:47.513Z,48.36
2022-08-17T10:12:30.237Z,48.31
2022-08-17T10:15:37.229Z,45.78
2022-08-17T10:18:25.513Z,45.01
2022-08-17T10:21:37.775Z,45.65
2022-08-17T10:25:21.344Z,43.78
2022-08-17T10:27:48.860Z,48.10
2022-08-17T10:30:18.865Z,49.19
2022-08-17T10:32:56.865Z,100.00
2022-08-17T10:35:26.235Z,100.00
2022-08-17T10:37:59.272Z,100.00
2022-08-17T10:40:35.764Z,46.67
2022-08-17T10:43:29.927Z,44.44
2022-08-17T10:46:27.807Z,42.40
2022-08-17T10:48:44.490Z,43.45
2022-08-17T10:51:38.092Z,44.10
2022-08-17T10:54:06.698Z,41.15
2022-08-17T10:56:45.600Z,40.40
2022-08-17T10:59:34.969Z,39.92
2022-08-17T11:02:04.220Z,41.92
2022-08-17T11:05:11.727Z,39.83
2022-08-17T11:07:58.565Z,40.50
2022-08-17T11:10:42.143Z,40.09
2022-08-17T11:13:28.351Z,41.48
2022-08-17T11:16:13.210Z,41.61
2022-08-17T11:19:16.397Z,38.40
2022-08-17T11:22:06.949Z,40.25
2022-08-17T11:24:44.839Z,39.15
2022-08-17T11:27:34.031Z,37.75
2022-08-17T11:30:04.615Z,37.33
2022-08-17T11:32:33.645Z,37.00
2022-08-17T11:35:21.653Z,38.17
2022-08-17T11:37:54.154Z,37.85
2022-08-17T11:40:26.489Z,39.82
2022-08-17T11:42:53.144Z,39.43
2022-08-17T11:46:02.301Z,100.00
2022-08-17T11:48:59.783Z,37.23
2022-08-17T11:52:09.713Z,40.77
2022-08-17T11:54:41.088Z,40.79
2022-08-17T11:57:25.653Z,38.04
2022-08-17T11:59:55.445Z,37.79
2022-08-17T12:02:31.598Z,36.93
2022-08-17T12:05:12.308Z,37.59
2022-08-17T12:07:48.902Z,41.23
2022-08-17T12:10:19.336Z,39.23
2022-08-17T12:12:50.331Z,100.00
2022-08-17T12:15:30.281Z,38.73
2022-08-17T12:17:57.918Z,39.77
2022-08-17T12:20:34.828Z,39.33
2022-08-17T12:23:33.846Z,41.60
2022-08-17T12:26:07.325Z,40.30
2022-08-17T12:28:36.698Z,39.84
2022-08-17T12:31:07.611Z,39.65
2022-08-17T12:33:36.944Z,38.99
2022-08-17T12:36:08.547Z,39.20
2022-08-17T12:38:37.957Z,39.31
2022-08-17T12:41:26.401Z,40.20
2022-08-17T12:44:06.315Z,40.04
2022-08-17T12:47:22.231Z,38.84
2022-08-17T12:49:54.170Z,40.73
2022-08-17T12:52:24.969Z,40.84
2022-08-17T12:55:01.934Z,40.70
2022-08-17T12:57:51.474Z,41.38
2022-08-17T13:00:28.816Z,42.44
2022-08-17T13:02:55.291Z,43.16
2022-08-17T13:05:27.693Z,43.79
2022-08-17T13:07:56.042Z,44.38
2022-08-17T13:10:32.183Z,44.68
2022-08-17T13:13:04.941Z,42.99
2022-08-17T13:15:51.236Z,41.81
2022-08-17T13:18:39.059Z,45.11
2022-08-17T13:21:23.772Z,45.92
2022-08-17T13:24:04.871Z,43.50
2022-08-17T13:26:31.352Z,43.10
2022-08-17T13:28:58.739Z,42.26
2022-08-17T13:31:28.272Z,41.68
2022-08-17T13:34:18.865Z,38.68
2022-08-17T13:36:47.958Z,39.04
2022-08-17T13:39:21.575Z,41.00
2022-08-17T13:41:50.145Z,37.64
2022-08-17T13:44:37.684Z,38.57
2022-08-17T13:47:14.699Z,37.91
2022-08-17T13:49:48.915Z,38.90
2022-08-17T13:52:38.753Z,38.00
2022-08-17T13:55:18.845Z,36.96
2022-08-17T13:57:48.030Z,37.74
2022-08-17T14:00:32.461Z,37.38
2022-08-17T14:03:00.806Z,34.56
2022-08-17T14:05:28.528Z,36.67
2022-08-17T14:08:06.883Z,38.31
2022-08-17T14:10:36.399Z,35.98
2022-08-17T14:13:04.345Z,34.75
2022-08-17T14:15:55.063Z,35.33
2022-08-17T14:18:19.023Z,33.50
2022-08-17T14:21:05.832Z,35.14
2022-08-17T14:23:32.972Z,35.65
2022-08-17T14:25:59.891Z,35.91
2022-08-17T14:28:27.819Z,35.14
2022-08-17T14:30:54.563Z,35.29
2022-08-17T14:33:22.724Z,35.92
2022-08-17T14:35:52.990Z,35.16
2022-08-17T14:38:20.693Z,35.12
2022-08-17T14:40:48.157Z,34.42
2022-08-17T14:43:15.900Z,33.67
2022-08-17T14:45:43.309Z,34.69
2022-08-17T14:48:10.535Z,35.80
2022-08-17T14:50:40.947Z,35.05
2022-08-17T14:53:10.192Z,35.83
2022-08-17T14:55:39.931Z,37.08
2022-08-17T14:58:07.582Z,37.60
2022-08-17T15:00:34.925Z,36.27
2022-08-17T15:03:01.988Z,36.31
2022-08-17T15:05:33.572Z,36.53
2022-08-17T15:08:01.806Z,37.71
2022-08-17T15:10:29.903Z,37.18
2022-08-17T15:12:56.932Z,36.66
2022-08-17T15:15:23.715Z,37.27
2022-08-17T15:17:51.396Z,37.32
2022-08-17T15:20:27.247Z,36.10
2022-08-17T15:22:57.340Z,37.27
2022-08-17T15:25:27.659Z,37.68
2022-08-17T15:27:56.198Z,37.34
2022-08-17T15:30:23.412Z,38.80
2022-08-17T15:32:55.289Z,37.95
2022-08-17T15:35:29.153Z,38.28
2022-08-17T15:38:08.008Z,38.72
2022-08-17T15:40:39.981Z,37.51
2022-08-17T15:43:12.847Z,38.94
2022-08-17T15:45:40.098Z,39.11
2022-08-17T15:48:07.523Z,38.92
2022-08-17T15:50:34.302Z,39.98
2022-08-17T15:53:02.020Z,40.62
2022-08-17T15:55:30.374Z,41.39
2022-08-17T15:57:57.111Z,40.51
2022-08-17T16:00:24.104Z,41.07
2022-08-17T16:03:13.662Z,38.81
2022-08-17T16:05:37.735Z,38.11
2022-08-17T16:08:07.585Z,39.54
2022-08-17T16:10:35.647Z,39.49
2022-08-17T16:13:04.007Z,41.02
2022-08-17T16:15:33.652Z,40.81
2022-08-17T16:18:00.246Z,42.00
2022-08-17T16:20:27.374Z,40.19
2022-08-17T16:22:54.468Z,39.83
2022-08-17T16:25:53.026Z,38.16
2022-08-17T16:28:14.252Z,40.16
2022-08-17T16:30:41.317Z,39.36
2022-08-17T16:33:11.422Z,40.42
2022-08-17T16:35:38.533Z,40.44
2022-08-17T16:38:05.317Z,39.68
2022-08-17T16:40:36.045Z,42.37
2022-08-17T16:43:10.633Z,42.15
2022-08-17T16:45:40.216Z,42.13
2022-08-17T16:48:08.055Z,43.09
2022-08-17T16:50:35.528Z,44.56
2022-08-17T16:53:06.617Z,45.57
2022-08-17T16:55:35.527Z,45.75
2022-08-17T16:58:04.479Z,46.50
2022-08-17T17:00:31.218Z,46.74
2022-08-17T17:03:19.955Z,46.20
2022-08-17T17:05:57.937Z,46.29
2022-08-17T17:08:26.974Z,46.15
2022-08-17T17:10:56.556Z,47.03
2022-08-17T17:13:46.909Z,47.40
2022-08-17T17:16:29.520Z,50.38
2022-08-17T17:19:03.274Z,52.31
2022-08-17T17:21:37.945Z,53.02
2022-08-17T17:24:10.042Z,53.02
2022-08-17T17:27:18.486Z,51.48
2022-08-17T17:30:14.636Z,51.19
2022-08-17T17:32:41.185Z,50.93
2022-08-17T17:35:32.608Z,51.16
2022-08-17T17:38:06.065Z,51.48
2022-08-17T17:40:40.232Z,52.34
2022-08-17T17:43:36.853Z,53.19
2022-08-17T17:46:26.712Z,53.69
2022-08-17T17:48:50.874Z,54.14
2022-08-17T17:51:17.572Z,54.40
2022-08-17T17:54:20.700Z,54.08
2022-08-17T17:56:58.141Z,54.36
2022-08-17T17:59:44.326Z,54.11
2022-08-17T18:02:52.056Z,55.61
2022-08-17T18:05:34.800Z,55.43
2022-08-17T18:08:11.038Z,55.09
2022-08-17T18:10:56.309Z,55.92
2022-08-17T18:13:42.407Z,57.85
2022-08-17T18:16:13.506Z,60.03
2022-08-17T18:18:52.347Z,58.43
2022-08-17T18:21:28.773Z,58.01
2022-08-17T18:24:01.400Z,57.50
2022-08-17T18:26:42.022Z,57.44
2022-08-17T18:29:32.429Z,57.69
2022-08-17T18:32:12.905Z,57.04
2022-08-17T18:34:48.582Z,56.98
2022-08-17T18:37:31.468Z,57.54
2022-08-17T18:39:58.238Z,57.23
2022-08-17T18:42:28.783Z,57.33
2022-08-17T18:44:56.164Z,57.81
2022-08-17T18:47:29.050Z,58.38
2022-08-17T18:49:58.907Z,58.14
2022-08-17T18:52:29.995Z,59.08
2022-08-17T18:55:35.450Z,59.72
2022-08-17T18:58:16.283Z,60.00
2022-08-17T19:00:45.741Z,60.97
2022-08-17T19:03:15.441Z,62.15
2022-08-17T19:05:54.730Z,62.30
2022-08-17T19:08:34.152Z,62.82
2022-08-17T19:11:34.446Z,62.98
2022-08-17T19:14:06.822Z,62.57
2022-08-17T19:16:54.466Z,62.60
2022-08-17T19:19:33.291Z,62.27
2022-08-17T19:22:30.905Z,62.79
2022-08-17T19:25:16.092Z,64.92
2022-08-17T19:27:57.784Z,64.68
2022-08-17T19:30:25.990Z,64.66
2022-08-17T19:32:53.169Z,64.27
2022-08-17T19:35:22.261Z,64.12
2022-08-17T19:38:12.750Z,64.00
2022-08-17T19:41:04.502Z,64.23
2022-08-17T19:44:11.078Z,65.65
2022-08-17T19:46:56.204Z,65.80
2022-08-17T19:49:49.851Z,65.16
2022-08-17T19:52:33.303Z,65.28
2022-08-17T19:55:07.210Z,64.95
2022-08-17T19:57:39.859Z,64.38
2022-08-17T20:00:13.567Z,64.92
2022-08-17T20:02:52.203Z,64.99
2022-08-17T20:06:01.421Z,65.20
2022-08-17T20:08:32.247Z,66.06
2022-08-17T20:11:06.988Z,65.47
2022-08-17T20:13:40.165Z,65.36
2022-08-17T20:16:08.326Z,65.46
2022-08-17T20:18:49.194Z,66.43
2022-08-17T20:21:20.374Z,66.02
2022-08-17T20:24:05.602Z,65.62
2022-08-17T20:26:57.972Z,65.23
2022-08-17T20:29:37.252Z,65.08
2022-08-17T20:32:17.490Z,65.46
2022-08-17T20:34:47.171Z,65.14
2022-08-17T20:37:13.633Z,65.32
2022-08-17T20:40:05.897Z,65.45
2022-08-17T20:42:33.892Z,65.40
2022-08-17T20:45:21.740Z,65.94
2022-08-17T20:48:18.522Z,66.22
2022-08-17T20:50:45.325Z,66.04
2022-08-17T20:53:32.545Z,66.56
2022-08-17T20:56:00.250Z,67.11
2022-08-17T20:58:30.661Z,67.33
2022-08-17T21:00:57.937Z,66.62
2022-08-17T21:03:24.578Z,66.74
2022-08-17T21:06:00.045Z,66.63
2022-08-17T21:08:33.899Z,66.38
2022-08-17T21:11:21.048Z,66.01
2022-08-17T21:14:27.346Z,66.01
2022-08-17T21:17:02.032Z,65.45
2022-08-17T21:20:11.539Z,64.93
2022-08-17T21:23:03.975Z,64.88
2022-08-17T21:25:40.281Z,64.05
2022-08-17T21:28:12.897Z,63.79
2022-08-17T21:30:39.373Z,63.17
2022-08-17T21:33:16.434Z,62.70
2022-08-17T21:36:01.640Z,63.61
2022-08-17T21:38:37.377Z,64.87
2022-08-17T21:41:04.354Z,64.93
2022-08-17T21:43:35.377Z,67.06
2022-08-17T21:46:04.432Z,66.28
2022-08-17T21:48:41.489Z,66.31
2022-08-17T21:51:20.750Z,66.49
2022-08-17T21:53:57.013Z,66.73
2022-08-17T21:56:31.706Z,67.07
2022-08-17T21:59:02.812Z,67.71
2022-08-17T22:01:39.359Z,68.00
2022-08-17T22:04:12.198Z,66.57
2022-08-17T22:06:56.822Z,65.41
2022-08-17T22:09:33.638Z,64.99
2022-08-17T22:12:12.719Z,64.68
2022-08-17T22:14:52.180Z,64.39
2022-08-17T22:17:22.784Z,64.86
2022-08-17T22:19:49.242Z,66.51
2022-08-17T22:22:30.165Z,66.85
2022-08-17T22:25:00.136Z,66.65
2022-08-17T22:27:47.928Z,67.39
2022-08-17T22:30:28.899Z,67.49
2022-08-17T22:32:56.336Z,67.48
2022-08-17T22:35:28.921Z,66.29
2022-08-17T22:37:56.642Z,66.70
2022-08-17T22:40:33.315Z,67.23
2022-08-17T22:43:03.112Z,66.45
2022-08-17T22:45:30.457Z,66.89
2022-08-17T22:47:59.848Z,67.03
2022-08-17T22:50:29.192Z,66.56
2022-08-17T22:53:43.604Z,66.64
2022-08-17T22:56:39.823Z,67.33
2022-08-17T22:59:22.512Z,67.47
2022-08-17T23:02:11.783Z,67.11
2022-08-17T23:04:41.450Z,67.00
2022-08-17T23:07:08.207Z,66.45
2022-08-17T23:09:35.937Z,67.02
2022-08-17T23:12:07.183Z,67.84
2022-08-17T23:14:39.251Z,69.06
2022-08-17T23:17:06.524Z,67.86
2022-08-17T23:19:33.553Z,67.60
2022-08-17T23:22:02.809Z,67.82
2022-08-17T23:24:31.766Z,68.02
2022-08-17T23:26:58.994Z,68.02
2022-08-17T23:29:29.493Z,67.98
2022-08-17T23:32:00.063Z,68.18
2022-08-17T23:34:28.156Z,68.99
2022-08-17T23:36:55.426Z,69.06
2022-08-17T23:39:27.272Z,68.77
2022-08-17T23:41:54.984Z,68.76
2022-08-17T23:44:23.524Z,68.70
2022-08-17T23:46:51.501Z,69.28
2022-08-17T23:49:19.151Z,71.75
2022-08-17T23:51:47.857Z,73.09
2022-08-17T23:54:38.583Z,70.64
2022-08-17T23:57:05.204Z,69.99
2022-08-17T23:59:32.966Z,70.26
